Terminal Aerodrome Forecast
Issued by NWS Bismarck, ND

Home | Current Version | Previous Version | Graphics & Text | Print | Product List | Glossary On
Versions: 1 2 3 4 5 6 7 8 9 10 11 12 13 14 15 16 17 18 19 20 21 22 23 24 25 26
000
FTUS43 KBIS 270300 AAA
TAFISN
TAF AMD
KISN 270308Z 2703/2724 12004KT P6SM BKN090
     FM270800 15006KT 4SM -SN OVC020
     FM271200 15005KT P6SM BKN018
     FM271400 24005KT P6SM BKN035
     FM271800 30010KT P6SM BKN090=

USA.gov is the U.S. government's official web portal to all federal, state and local government web resources and services.